createdAt,value
2018-08-10T00:00:29.363Z,-77
2018-08-10T00:01:29.485Z,-77
2018-08-10T00:02:29.413Z,-77
2018-08-10T00:03:29.480Z,-77
2018-08-10T00:04:29.366Z,-77
2018-08-10T00:05:29.493Z,-78
2018-08-10T00:06:29.368Z,-78
2018-08-10T00:07:29.809Z,-79
2018-08-10T00:08:29.396Z,-77
2018-08-10T00:09:29.491Z,-77
2018-08-10T00:10:29.372Z,-77
2018-08-10T00:11:29.492Z,-77
2018-08-10T00:12:29.375Z,-77
2018-08-10T00:13:29.529Z,-77
2018-08-10T00:14:29.376Z,-77
2018-08-10T00:15:29.499Z,-77
2018-08-10T00:16:29.379Z,-79
2018-08-10T00:17:29.497Z,-78
2018-08-10T00:18:29.411Z,-77
2018-08-10T00:19:29.497Z,-77
2018-08-10T00:20:29.382Z,-77
2018-08-10T00:21:29.506Z,-77
2018-08-10T00:22:29.383Z,-77
2018-08-10T00:23:29.532Z,-77
2018-08-10T00:24:29.386Z,-77
2018-08-10T00:25:29.504Z,-77
2018-08-10T00:26:29.386Z,-77
2018-08-10T00:27:29.507Z,-77
2018-08-10T00:28:29.413Z,-77
2018-08-10T00:29:29.508Z,-77
2018-08-10T00:30:29.392Z,-77
2018-08-10T00:31:29.510Z,-77
2018-08-10T00:32:29.424Z,-77
2018-08-10T00:33:29.536Z,-77
2018-08-10T00:34:29.397Z,-79
2018-08-10T00:35:29.558Z,-78
2018-08-10T00:36:29.397Z,-78
2018-08-10T00:37:29.518Z,-79
2018-08-10T00:38:29.424Z,-76
2018-08-10T00:39:29.517Z,-76
2018-08-10T00:40:29.400Z,-76
2018-08-10T00:41:29.519Z,-78
2018-08-10T00:42:29.405Z,-79
2018-08-10T00:43:29.547Z,-79
2018-08-10T00:44:29.405Z,-79
2018-08-10T00:45:29.530Z,-79
2018-08-10T00:46:29.406Z,-79
2018-08-10T00:47:29.527Z,-78
2018-08-10T00:48:29.435Z,-78
2018-08-10T00:49:29.533Z,-78
2018-08-10T00:50:29.443Z,-79
2018-08-10T00:51:29.528Z,-78
2018-08-10T00:52:29.414Z,-78
2018-08-10T00:53:29.557Z,-78
2018-08-10T00:54:29.414Z,-77
2018-08-10T00:55:29.540Z,-77
2018-08-10T00:56:29.425Z,-77
2018-08-10T00:57:29.542Z,-77
2018-08-10T00:58:29.443Z,-77
2018-08-10T00:59:29.540Z,-77
2018-08-10T01:00:29.423Z,-77
2018-08-10T01:01:29.541Z,-77
2018-08-10T01:02:29.421Z,-78
2018-08-10T01:03:29.564Z,-78
2018-08-10T01:04:29.426Z,-78
2018-08-10T01:05:29.687Z,-78
2018-08-10T01:06:29.429Z,-78
2018-08-10T01:07:29.545Z,-78
2018-08-10T01:08:29.458Z,-78
2018-08-10T01:09:29.565Z,-80
2018-08-10T01:10:29.430Z,-80
2018-08-10T01:11:29.558Z,-80
2018-08-10T01:12:29.434Z,-80
2018-08-10T01:13:29.802Z,-80
2018-08-10T01:14:29.460Z,-80
2018-08-10T01:15:29.553Z,-80
2018-08-10T01:16:29.444Z,-80
2018-08-10T01:17:29.557Z,-80
2018-08-10T01:18:29.439Z,-80
2018-08-10T01:19:29.988Z,-80
2018-08-10T01:20:29.441Z,-80
2018-08-10T01:21:29.567Z,-80
2018-08-10T01:22:29.441Z,-80
2018-08-10T01:23:29.578Z,-80
2018-08-10T01:24:29.516Z,-80
2018-08-10T01:25:29.567Z,-80
2018-08-10T01:26:29.447Z,-80
2018-08-10T01:27:29.578Z,-80
2018-08-10T01:28:29.607Z,-80
2018-08-10T01:29:30.084Z,-80
2018-08-10T01:30:29.492Z,-80
2018-08-10T01:31:29.645Z,-78
2018-08-10T01:32:29.478Z,-77
2018-08-10T01:33:29.843Z,-78
2018-08-10T01:34:29.692Z,-78
2018-08-10T01:35:29.839Z,-78
2018-08-10T01:36:29.791Z,-77
2018-08-10T01:37:29.771Z,-76
2018-08-10T01:38:29.541Z,-76
2018-08-10T01:39:29.754Z,-77
2018-08-10T01:40:29.481Z,-78
2018-08-10T01:41:29.841Z,-78
2018-08-10T01:42:29.590Z,-78
2018-08-10T01:43:29.815Z,-77
2018-08-10T01:44:29.527Z,-77
2018-08-10T01:45:29.659Z,-77
2018-08-10T01:46:29.704Z,-77
2018-08-10T01:47:29.651Z,-77
2018-08-10T01:48:29.861Z,-77
2018-08-10T01:49:29.748Z,-77
2018-08-10T01:50:29.537Z,-77
2018-08-10T01:51:29.701Z,-77
2018-08-10T01:52:29.472Z,-77
2018-08-10T01:53:29.593Z,-78
2018-08-10T01:54:29.496Z,-78
2018-08-10T01:55:29.610Z,-78
2018-08-10T01:56:29.481Z,-77
2018-08-10T01:57:29.601Z,-77
2018-08-10T01:58:29.476Z,-77
2018-08-10T01:59:29.630Z,-77
2018-08-10T02:00:29.478Z,-78
2018-08-10T02:01:29.610Z,-78
2018-08-10T02:02:29.480Z,-78
2018-08-10T02:03:29.594Z,-77
2018-08-10T02:04:29.507Z,-77
2018-08-10T02:05:29.610Z,-77
2018-08-10T02:06:29.490Z,-77
2018-08-10T02:07:29.606Z,-77
2018-08-10T02:08:29.484Z,-77
2018-08-10T02:09:29.635Z,-77
2018-08-10T02:10:29.488Z,-77
2018-08-10T02:11:29.621Z,-77
2018-08-10T02:12:29.490Z,-77
2018-08-10T02:13:29.614Z,-77
2018-08-10T02:14:29.515Z,-77
2018-08-10T02:15:29.619Z,-77
2018-08-10T02:16:29.493Z,-77
2018-08-10T02:17:29.610Z,-77
2018-08-10T02:18:29.494Z,-77
2018-08-10T02:19:29.649Z,-77
2018-08-10T02:20:29.497Z,-77
2018-08-10T02:21:29.618Z,-77
2018-08-10T02:22:29.507Z,-77
2018-08-10T02:23:29.619Z,-79
2018-08-10T02:24:29.528Z,-79
2018-08-10T02:25:29.638Z,-79
2018-08-10T02:26:29.503Z,-79
2018-08-10T02:27:29.626Z,-78
2018-08-10T02:28:29.502Z,-78
2018-08-10T02:29:29.646Z,-78
2018-08-10T02:30:29.515Z,-78
2018-08-10T02:31:29.624Z,-78
2018-08-10T02:32:29.508Z,-78
2018-08-10T02:33:29.626Z,-78
2018-08-10T02:34:29.536Z,-78
2018-08-10T02:35:29.629Z,-78
2018-08-10T02:36:29.513Z,-79
2018-08-10T02:37:29.633Z,-79
2018-08-10T02:38:29.516Z,-79
2018-08-10T02:39:29.669Z,-79
2018-08-10T02:40:29.525Z,-77
2018-08-10T02:41:29.653Z,-77
2018-08-10T02:42:29.517Z,-79
2018-08-10T02:43:29.649Z,-79
2018-08-10T02:44:29.558Z,-79
2018-08-10T02:45:29.638Z,-79
2018-08-10T02:46:29.530Z,-78
2018-08-10T02:47:29.660Z,-78
2018-08-10T02:48:29.534Z,-77
2018-08-10T02:49:29.651Z,-77
2018-08-10T02:50:29.557Z,-77
2018-08-10T02:51:29.654Z,-77
2018-08-10T02:52:29.528Z,-77
2018-08-10T02:53:29.666Z,-79
2018-08-10T02:54:29.536Z,-79
2018-08-10T02:55:29.682Z,-78
2018-08-10T02:56:29.625Z,-78
2018-08-10T02:57:29.651Z,-78
2018-08-10T02:58:29.533Z,-78
2018-08-10T02:59:29.656Z,-78
2018-08-10T03:00:29.560Z,-78
2018-08-10T03:01:29.657Z,-78
2018-08-10T03:02:29.547Z,-79
2018-08-10T03:03:29.666Z,-79
2018-08-10T03:04:29.545Z,-78
2018-08-10T03:05:29.688Z,-78
2018-08-10T03:06:29.540Z,-78
2018-08-10T03:07:29.669Z,-77
2018-08-10T03:08:29.550Z,-77
2018-08-10T03:09:29.667Z,-77
2018-08-10T03:10:29.577Z,-77
2018-08-10T03:11:29.665Z,-77
2018-08-10T03:12:29.553Z,-77
2018-08-10T03:13:29.662Z,-77
2018-08-10T03:14:29.548Z,-77
2018-08-10T03:15:29.695Z,-77
2018-08-10T03:16:29.561Z,-77
2018-08-10T03:17:29.668Z,-77
2018-08-10T03:18:29.560Z,-77
2018-08-10T03:19:29.679Z,-77
2018-08-10T03:20:29.577Z,-77
2018-08-10T03:21:29.671Z,-77
2018-08-10T03:22:29.563Z,-77
2018-08-10T03:23:29.676Z,-77
2018-08-10T03:24:29.558Z,-78
2018-08-10T03:25:29.721Z,-78
2018-08-10T03:26:29.559Z,-78
2018-08-10T03:27:29.680Z,-78
2018-08-10T03:28:29.564Z,-78
2018-08-10T03:29:29.695Z,-78
2018-08-10T03:30:29.597Z,-78
2018-08-10T03:31:29.687Z,-78
2018-08-10T03:32:29.567Z,-78
2018-08-10T03:33:29.681Z,-77
2018-08-10T03:34:29.566Z,-77
2018-08-10T03:35:29.720Z,-77
2018-08-10T03:36:29.571Z,-77
2018-08-10T03:37:29.704Z,-77
2018-08-10T03:38:29.568Z,-76
2018-08-10T03:39:29.686Z,-76
2018-08-10T03:40:29.598Z,-76
2018-08-10T03:41:29.691Z,-76
2018-08-10T03:42:29.573Z,-76
2018-08-10T03:43:29.691Z,-76
2018-08-10T03:44:29.576Z,-77
2018-08-10T03:45:29.717Z,-77
2018-08-10T03:46:29.577Z,-77
2018-08-10T03:47:29.696Z,-76
2018-08-10T03:48:29.599Z,-76
2018-08-10T03:49:29.702Z,-76
2018-08-10T03:50:29.605Z,-76
2018-08-10T03:51:29.703Z,-76
2018-08-10T03:52:29.589Z,-76
2018-08-10T03:53:29.701Z,-76
2018-08-10T03:54:29.587Z,-76
2018-08-10T03:55:29.731Z,-77
2018-08-10T03:56:29.588Z,-77
2018-08-10T03:57:29.721Z,-77
2018-08-10T03:58:29.590Z,-77
2018-08-10T03:59:29.725Z,-77
2018-08-10T04:00:29.623Z,-77
2018-08-10T04:01:29.719Z,-77
2018-08-10T04:02:29.601Z,-77
2018-08-10T04:03:29.719Z,-77
2018-08-10T04:04:29.600Z,-74
2018-08-10T04:05:29.755Z,-75
2018-08-10T04:06:29.595Z,-76
2018-08-10T04:07:29.725Z,-75
2018-08-10T04:08:29.598Z,-75
2018-08-10T04:09:29.715Z,-75
2018-08-10T04:10:29.794Z,-75
2018-08-10T04:11:29.716Z,-75
2018-08-10T04:12:29.602Z,-75
2018-08-10T04:13:29.720Z,-75
2018-08-10T04:14:29.610Z,-75
2018-08-10T04:15:29.765Z,-75
2018-08-10T04:16:29.606Z,-75
2018-08-10T04:17:29.733Z,-75
2018-08-10T04:18:29.608Z,-76
2018-08-10T04:19:29.743Z,-75
2018-08-10T04:20:29.610Z,-76
2018-08-10T04:21:29.755Z,-75
2018-08-10T04:22:29.617Z,-75
2018-08-10T04:23:29.730Z,-75
2018-08-10T04:24:29.613Z,-75
2018-08-10T04:25:29.744Z,-75
2018-08-10T04:26:29.639Z,-75
2018-08-10T04:27:29.741Z,-75
2018-08-10T04:28:29.616Z,-76
2018-08-10T04:29:29.789Z,-76
2018-08-10T04:30:29.620Z,-75
2018-08-10T04:31:29.763Z,-75
2018-08-10T04:32:29.622Z,-75
2018-08-10T04:33:29.750Z,-75
2018-08-10T04:34:29.624Z,-75
2018-08-10T04:35:29.740Z,-75
2018-08-10T04:36:29.649Z,-75
2018-08-10T04:37:29.750Z,-75
2018-08-10T04:38:29.637Z,-76
2018-08-10T04:39:29.752Z,-76
2018-08-10T04:40:29.636Z,-75
2018-08-10T04:41:29.780Z,-76
2018-08-10T04:42:29.631Z,-76
2018-08-10T04:43:29.750Z,-76
2018-08-10T04:44:29.633Z,-75
2018-08-10T04:45:29.758Z,-75
2018-08-10T04:46:29.657Z,-75
2018-08-10T04:47:29.756Z,-75
2018-08-10T04:48:29.636Z,-76
2018-08-10T04:49:29.773Z,-76
2018-08-10T04:50:29.639Z,-76
2018-08-10T04:51:29.785Z,-75
2018-08-10T04:52:29.646Z,-75
2018-08-10T04:53:29.761Z,-76
2018-08-10T04:54:29.651Z,-75
2018-08-10T04:55:30.098Z,-75
2018-08-10T04:56:29.669Z,-75
2018-08-10T04:57:29.782Z,-75
2018-08-10T04:58:29.648Z,-76
2018-08-10T04:59:29.772Z,-75
2018-08-10T05:00:29.647Z,-75
2018-08-10T05:01:29.807Z,-75
2018-08-10T05:02:29.650Z,-75
2018-08-10T05:03:29.770Z,-75
2018-08-10T05:04:29.658Z,-75
2018-08-10T05:05:29.769Z,-75
2018-08-10T05:06:29.686Z,-75
2018-08-10T05:07:29.777Z,-75
2018-08-10T05:08:29.658Z,-76
2018-08-10T05:09:29.779Z,-75
2018-08-10T05:10:29.656Z,-75
2018-08-10T05:11:29.811Z,-75
2018-08-10T05:12:29.660Z,-75
2018-08-10T05:13:29.778Z,-75
2018-08-10T05:14:29.668Z,-75
2018-08-10T05:15:29.786Z,-75
2018-08-10T05:16:29.695Z,-75
2018-08-10T05:17:29.780Z,-75
2018-08-10T05:18:29.666Z,-75
2018-08-10T05:19:29.794Z,-75
2018-08-10T05:20:29.675Z,-75
2018-08-10T05:21:29.817Z,-75
2018-08-10T05:22:29.670Z,-75
2018-08-10T05:23:29.786Z,-75
2018-08-10T05:24:29.676Z,-75
2018-08-10T05:25:29.800Z,-75
2018-08-10T05:26:29.695Z,-75
2018-08-10T05:27:29.791Z,-76
2018-08-10T05:28:29.676Z,-76
2018-08-10T05:29:29.797Z,-75
2018-08-10T05:30:29.684Z,-75
2018-08-10T05:31:29.828Z,-75
2018-08-10T05:32:29.719Z,-75
2018-08-10T05:33:29.794Z,-75
2018-08-10T05:34:29.681Z,-75
2018-08-10T05:35:29.803Z,-75
2018-08-10T05:36:29.711Z,-75
2018-08-10T05:37:29.797Z,-76
2018-08-10T05:38:29.690Z,-76
2018-08-10T05:39:29.805Z,-75
2018-08-10T05:40:29.692Z,-75
2018-08-10T05:41:29.848Z,-75
2018-08-10T05:42:29.691Z,-75
2018-08-10T05:43:29.818Z,-75
2018-08-10T05:44:29.697Z,-75
2018-08-10T05:45:29.823Z,-75
2018-08-10T05:46:29.864Z,-75
2018-08-10T05:47:29.810Z,-75
2018-08-10T05:48:29.702Z,-76
2018-08-10T05:49:29.820Z,-76
2018-08-10T05:50:29.696Z,-76
2018-08-10T05:51:29.840Z,-76
2018-08-10T05:52:29.718Z,-75
2018-08-10T05:53:29.827Z,-75
2018-08-10T05:54:29.699Z,-75
2018-08-10T05:55:29.826Z,-75
2018-08-10T05:56:29.727Z,-76
2018-08-10T05:57:29.897Z,-76
2018-08-10T05:58:29.714Z,-76
2018-08-10T05:59:29.820Z,-76
2018-08-10T06:00:29.705Z,-76
2018-08-10T06:01:29.868Z,-76
2018-08-10T06:02:29.707Z,-76
2018-08-10T06:03:30.332Z,-76
2018-08-10T06:04:29.707Z,-76
2018-08-10T06:05:29.825Z,-76
2018-08-10T06:06:29.712Z,-76
2018-08-10T06:07:29.858Z,-76
2018-08-10T06:08:29.713Z,-76
2018-08-10T06:09:29.830Z,-76
2018-08-10T06:10:29.721Z,-76
2018-08-10T06:11:29.834Z,-76
2018-08-10T06:12:29.741Z,-76
2018-08-10T06:13:29.833Z,-76
2018-08-10T06:14:29.724Z,-76
2018-08-10T06:15:29.881Z,-76
2018-08-10T06:16:29.720Z,-76
2018-08-10T06:17:29.900Z,-76
2018-08-10T06:18:29.729Z,-76
2018-08-10T06:19:30.096Z,-76
2018-08-10T06:20:29.725Z,-76
2018-08-10T06:21:29.894Z,-76
2018-08-10T06:22:29.749Z,-76
2018-08-10T06:23:29.859Z,-76
2018-08-10T06:24:29.727Z,-76
2018-08-10T06:25:29.846Z,-76
2018-08-10T06:26:29.736Z,-76
2018-08-10T06:27:29.874Z,-76
2018-08-10T06:28:29.740Z,-76
2018-08-10T06:29:29.859Z,-76
2018-08-10T06:30:29.742Z,-76
2018-08-10T06:31:29.856Z,-76
2018-08-10T06:32:29.766Z,-76
2018-08-10T06:33:29.855Z,-76
2018-08-10T06:34:29.735Z,-76
2018-08-10T06:35:29.862Z,-76
2018-08-10T06:36:29.745Z,-76
2018-08-10T06:37:29.883Z,-76
2018-08-10T06:38:29.738Z,-76
2018-08-10T06:39:29.873Z,-76
2018-08-10T06:40:29.743Z,-76
2018-08-10T06:41:29.875Z,-76
2018-08-10T06:42:29.768Z,-76
2018-08-10T06:43:29.877Z,-76
2018-08-10T06:44:29.746Z,-76
2018-08-10T06:45:29.865Z,-76
2018-08-10T06:46:29.746Z,-76
2018-08-10T06:47:29.888Z,-76
2018-08-10T06:48:29.763Z,-76
2018-08-10T06:49:29.866Z,-76
2018-08-10T06:50:29.754Z,-76
2018-08-10T06:51:29.872Z,-76
2018-08-10T06:52:29.777Z,-76
2018-08-10T06:53:29.881Z,-76
2018-08-10T06:54:29.755Z,-76
2018-08-10T06:55:29.873Z,-76
2018-08-10T06:56:29.758Z,-76
2018-08-10T06:57:29.913Z,-76
2018-08-10T06:58:29.760Z,-76
2018-08-10T06:59:29.887Z,-76
2018-08-10T07:00:29.814Z,-76
2018-08-10T07:01:30.076Z,-76
2018-08-10T07:02:29.788Z,-76
2018-08-10T07:03:29.886Z,-76
2018-08-10T07:04:29.766Z,-76
2018-08-10T07:05:29.900Z,-76
2018-08-10T07:06:29.767Z,-76
2018-08-10T07:07:30.159Z,-76
2018-08-10T07:08:29.769Z,-76
2018-08-10T07:09:29.896Z,-76
2018-08-10T07:10:29.769Z,-76
2018-08-10T07:11:29.905Z,-76
2018-08-10T07:12:29.809Z,-76
2018-08-10T07:13:29.991Z,-76
2018-08-10T07:14:29.775Z,-76
2018-08-10T07:15:29.891Z,-76
2018-08-10T07:16:29.784Z,-76
2018-08-10T07:17:29.927Z,-76
2018-08-10T07:18:29.783Z,-76
2018-08-10T07:19:29.905Z,-76
2018-08-10T07:20:29.787Z,-76
2018-08-10T07:21:29.903Z,-76
2018-08-10T07:22:29.813Z,-76
2018-08-10T07:23:29.920Z,-76
2018-08-10T07:24:29.793Z,-76
2018-08-10T07:25:29.908Z,-76
2018-08-10T07:26:29.786Z,-76
2018-08-10T07:27:29.961Z,-76
2018-08-10T07:28:29.787Z,-76
2018-08-10T07:29:29.918Z,-76
2018-08-10T07:30:29.792Z,-76
2018-08-10T07:31:29.917Z,-76
2018-08-10T07:32:29.793Z,-76
2018-08-10T07:33:29.936Z,-76
2018-08-10T07:34:29.793Z,-76
2018-08-10T07:35:29.918Z,-76
2018-08-10T07:36:29.885Z,-76
2018-08-10T07:37:29.912Z,-76
2018-08-10T07:38:29.880Z,-76
2018-08-10T07:39:29.929Z,-76
2018-08-10T07:40:29.798Z,-76
2018-08-10T07:41:29.934Z,-76
2018-08-10T07:42:29.802Z,-76
2018-08-10T07:43:29.943Z,-76
2018-08-10T07:44:29.812Z,-76
2018-08-10T07:45:29.932Z,-76
2018-08-10T07:46:29.895Z,-76
2018-08-10T07:47:29.925Z,-76
2018-08-10T07:48:29.832Z,-76
2018-08-10T07:49:29.936Z,-76
2018-08-10T07:50:29.810Z,-76
2018-08-10T07:51:29.929Z,-76
2018-08-10T07:52:29.812Z,-76
2018-08-10T07:53:29.981Z,-76
2018-08-10T07:54:29.815Z,-76
2018-08-10T07:55:29.942Z,-76
2018-08-10T07:56:29.815Z,-76
2018-08-10T07:57:29.940Z,-76
2018-08-10T07:58:29.840Z,-76
2018-08-10T07:59:29.962Z,-76
2018-08-10T08:00:29.818Z,-76
2018-08-10T08:01:29.945Z,-76
2018-08-10T08:02:29.820Z,-76
2018-08-10T08:03:29.965Z,-76
2018-08-10T08:04:29.824Z,-76
2018-08-10T08:05:29.968Z,-76
2018-08-10T08:06:29.825Z,-76
2018-08-10T08:07:29.941Z,-76
2018-08-10T08:08:29.864Z,-76
2018-08-10T08:09:29.950Z,-76
2018-08-10T08:10:29.861Z,-76
2018-08-10T08:11:29.948Z,-76
2018-08-10T08:12:29.828Z,-76
2018-08-10T08:13:29.973Z,-76
2018-08-10T08:14:29.833Z,-76
2018-08-10T08:15:29.962Z,-76
2018-08-10T08:16:29.835Z,-76
2018-08-10T08:17:29.976Z,-76
2018-08-10T08:18:29.860Z,-76
2018-08-10T08:19:30.244Z,-76
2018-08-10T08:20:29.839Z,-76
2018-08-10T08:21:29.970Z,-76
2018-08-10T08:22:29.840Z,-76
2018-08-10T08:23:30.002Z,-76
2018-08-10T08:24:29.841Z,-76
2018-08-10T08:25:29.959Z,-76
2018-08-10T08:26:29.970Z,-76
2018-08-10T08:27:33.182Z,-76
2018-08-10T08:28:31.019Z,-76
2018-08-10T08:29:29.966Z,-76
2018-08-10T08:30:29.848Z,-76
2018-08-10T08:31:29.967Z,-76
2018-08-10T08:32:29.851Z,-76
2018-08-10T08:33:29.989Z,-76
2018-08-10T08:34:29.856Z,-76
2018-08-10T08:35:29.978Z,-76
2018-08-10T08:36:29.861Z,-76
2018-08-10T08:37:30.808Z,-76
2018-08-10T08:38:29.892Z,-76
2018-08-10T08:39:29.982Z,-76
2018-08-10T08:40:29.863Z,-76
2018-08-10T08:41:29.976Z,-76
2018-08-10T08:42:29.861Z,-76
2018-08-10T08:43:30.001Z,-76
2018-08-10T08:44:29.861Z,-76
2018-08-10T08:45:30.334Z,-76
2018-08-10T08:46:30.242Z,-76
2018-08-10T08:47:29.986Z,-76
2018-08-10T08:48:29.864Z,-76
2018-08-10T08:49:30.011Z,-76
2018-08-10T08:50:29.868Z,-76
2018-08-10T08:51:29.985Z,-76
2018-08-10T08:52:29.879Z,-76
2018-08-10T08:53:29.992Z,-76
2018-08-10T08:54:29.895Z,-76
2018-08-10T08:55:29.989Z,-76
2018-08-10T08:56:30.014Z,-76
2018-08-10T08:57:31.547Z,-77
2018-08-10T08:58:30.025Z,-77
2018-08-10T08:59:30.021Z,-77
2018-08-10T09:00:29.876Z,-76
2018-08-10T09:01:30.214Z,-76
2018-08-10T09:02:29.998Z,-77
2018-08-10T09:03:30.272Z,-77
2018-08-10T09:04:29.985Z,-77
2018-08-10T09:05:33.357Z,-77
2018-08-10T09:06:29.957Z,-76
2018-08-10T09:07:30.301Z,-77
2018-08-10T09:08:29.929Z,-77
2018-08-10T09:09:30.053Z,-77
2018-08-10T09:10:29.886Z,-77
2018-08-10T09:11:30.005Z,-77
2018-08-10T09:12:29.898Z,-77
2018-08-10T09:13:30.012Z,-77
2018-08-10T09:14:30.029Z,-77
2018-08-10T09:15:30.440Z,-77
2018-08-10T09:16:30.018Z,-77
2018-08-10T09:17:30.298Z,-77
2018-08-10T09:18:29.894Z,-77
2018-08-10T09:19:30.011Z,-77
2018-08-10T09:20:29.921Z,-77
2018-08-10T09:21:30.030Z,-77
2018-08-10T09:22:29.899Z,-77
2018-08-10T09:23:30.032Z,-77
2018-08-10T09:24:29.897Z,-77
2018-08-10T09:25:30.577Z,-77
2018-08-10T09:26:29.900Z,-77
2018-08-10T09:27:30.440Z,-77
2018-08-10T09:28:30.028Z,-77
2018-08-10T09:29:30.436Z,-77
2018-08-10T09:30:29.934Z,-77
2018-08-10T09:31:30.027Z,-77
2018-08-10T09:32:29.906Z,-77
2018-08-10T09:33:30.030Z,-77
2018-08-10T09:34:29.936Z,-77
2018-08-10T09:35:30.062Z,-77
2018-08-10T09:36:29.912Z,-77
2018-08-10T09:37:30.030Z,-77
2018-08-10T09:38:29.974Z,-77
2018-08-10T09:39:30.497Z,-77
2018-08-10T09:40:29.937Z,-77
2018-08-10T09:41:30.033Z,-77
2018-08-10T09:42:29.919Z,-77
2018-08-10T09:43:30.037Z,-77
2018-08-10T09:44:29.918Z,-77
2018-08-10T09:45:30.460Z,-77
2018-08-10T09:46:29.919Z,-77
2018-08-10T09:47:30.042Z,-77
2018-08-10T09:48:29.921Z,-77
2018-08-10T09:49:30.043Z,-77
2018-08-10T09:50:29.955Z,-77
2018-08-10T09:51:30.050Z,-77
2018-08-10T09:52:29.924Z,-77
2018-08-10T09:53:30.043Z,-77
2018-08-10T09:54:29.929Z,-77
2018-08-10T09:55:30.119Z,-77
2018-08-10T09:56:29.935Z,-77
2018-08-10T09:57:30.049Z,-77
2018-08-10T09:58:29.940Z,-77
2018-08-10T09:59:30.058Z,-77
2018-08-10T10:00:29.959Z,-77
2018-08-10T10:01:30.061Z,-77
2018-08-10T10:02:29.944Z,-77
2018-08-10T10:03:30.066Z,-77
2018-08-10T10:04:29.937Z,-77
2018-08-10T10:05:30.460Z,-77
2018-08-10T10:06:29.939Z,-77
2018-08-10T10:07:30.169Z,-77
2018-08-10T10:08:29.946Z,-77
2018-08-10T10:09:30.067Z,-77
2018-08-10T10:10:29.985Z,-77
2018-08-10T10:11:30.070Z,-77
2018-08-10T10:12:29.952Z,-77
2018-08-10T10:13:30.081Z,-77
2018-08-10T10:14:29.947Z,-77
2018-08-10T10:15:30.092Z,-76
2018-08-10T10:16:29.981Z,-76
2018-08-10T10:17:30.377Z,-77
2018-08-10T10:18:29.958Z,-77
2018-08-10T10:19:30.076Z,-77
2018-08-10T10:20:29.959Z,-77
2018-08-10T10:21:30.097Z,-77
2018-08-10T10:22:29.953Z,-77
2018-08-10T10:23:30.080Z,-77
2018-08-10T10:24:29.957Z,-77
2018-08-10T10:25:30.081Z,-77
2018-08-10T10:26:29.988Z,-77
2018-08-10T10:27:30.076Z,-77
2018-08-10T10:28:29.960Z,-77
2018-08-10T10:29:30.075Z,-77
2018-08-10T10:30:29.962Z,-77
2018-08-10T10:31:30.116Z,-75
2018-08-10T10:32:29.969Z,-75
2018-08-10T10:33:30.085Z,-75
2018-08-10T10:34:29.967Z,-75
2018-08-10T10:35:30.090Z,-75
2018-08-10T10:36:29.990Z,-75
2018-08-10T10:37:30.086Z,-76
2018-08-10T10:38:29.970Z,-75
2018-08-10T10:39:30.091Z,-75
2018-08-10T10:40:29.997Z,-75
2018-08-10T10:41:30.413Z,-75
2018-08-10T10:42:29.981Z,-75
2018-08-10T10:43:30.151Z,-75
2018-08-10T10:44:29.988Z,-76
2018-08-10T10:45:30.099Z,-76
2018-08-10T10:46:30.010Z,-75
2018-08-10T10:47:30.319Z,-75
2018-08-10T10:48:30.147Z,-75
2018-08-10T10:49:30.097Z,-75
2018-08-10T10:50:29.988Z,-75
2018-08-10T10:51:30.138Z,-75
2018-08-10T10:52:29.994Z,-75
2018-08-10T10:53:30.117Z,-76
2018-08-10T10:54:29.987Z,-75
2018-08-10T10:55:30.269Z,-75
2018-08-10T10:56:30.109Z,-75
2018-08-10T10:57:30.114Z,-75
2018-08-10T10:58:29.989Z,-75
2018-08-10T10:59:30.108Z,-75
2018-08-10T11:00:29.993Z,-75
2018-08-10T11:01:30.159Z,-75
2018-08-10T11:02:30.001Z,-75
2018-08-10T11:03:30.122Z,-75
2018-08-10T11:04:30.004Z,-75
2018-08-10T11:05:30.107Z,-75
2018-08-10T11:06:30.023Z,-75
2018-08-10T11:07:30.133Z,-75
2018-08-10T11:08:30.005Z,-75
2018-08-10T11:09:30.117Z,-75
2018-08-10T11:10:30.011Z,-75
2018-08-10T11:11:30.149Z,-75
2018-08-10T11:12:30.001Z,-75
2018-08-10T11:13:30.137Z,-75
2018-08-10T11:14:30.006Z,-75
2018-08-10T11:15:30.126Z,-75
2018-08-10T11:16:30.020Z,-75
2018-08-10T11:17:30.164Z,-75
2018-08-10T11:18:30.067Z,-73
2018-08-10T11:19:30.129Z,-73
2018-08-10T11:20:30.012Z,-73
2018-08-10T11:21:30.132Z,-73
2018-08-10T11:22:30.039Z,-73
2018-08-10T11:23:30.149Z,-73
2018-08-10T11:24:30.017Z,-73
2018-08-10T11:25:30.702Z,-75
2018-08-10T11:26:30.023Z,-75
2018-08-10T11:27:30.157Z,-76
2018-08-10T11:28:30.020Z,-76
2018-08-10T11:29:30.203Z,-75
2018-08-10T11:30:30.028Z,-75
2018-08-10T11:31:30.146Z,-75
2018-08-10T11:32:30.051Z,-75
2018-08-10T11:33:30.146Z,-75
2018-08-10T11:34:30.025Z,-75
2018-08-10T11:35:30.145Z,-75
2018-08-10T11:36:30.034Z,-75
2018-08-10T11:37:30.171Z,-75
2018-08-10T11:38:30.070Z,-75
2018-08-10T11:39:30.177Z,-75
2018-08-10T11:40:30.053Z,-75
2018-08-10T11:41:30.252Z,-75
2018-08-10T11:42:30.057Z,-75
2018-08-10T11:43:30.155Z,-75
2018-08-10T11:44:30.035Z,-75
2018-08-10T11:45:30.167Z,-75
2018-08-10T11:46:30.034Z,-75
2018-08-10T11:47:30.179Z,-75
2018-08-10T11:48:30.039Z,-75
2018-08-10T11:49:30.200Z,-75
2018-08-10T11:50:30.070Z,-75
2018-08-10T11:51:30.166Z,-75
2018-08-10T11:52:30.131Z,-75
2018-08-10T11:53:30.159Z,-75
2018-08-10T11:54:30.050Z,-75
2018-08-10T11:55:30.164Z,-75
2018-08-10T11:56:30.046Z,-75
2018-08-10T11:57:30.443Z,-75
2018-08-10T11:58:30.058Z,-75
2018-08-10T11:59:30.169Z,-75
2018-08-10T12:00:30.096Z,-75
2018-08-10T12:01:30.354Z,-75
2018-08-10T12:02:30.085Z,-75
2018-08-10T12:03:30.183Z,-75
2018-08-10T12:04:30.053Z,-75
2018-08-10T12:05:30.172Z,-75
2018-08-10T12:06:30.056Z,-75
2018-08-10T12:07:30.214Z,-75
2018-08-10T12:08:30.056Z,-75
2018-08-10T12:09:30.178Z,-75
2018-08-10T12:10:30.058Z,-75
2018-08-10T12:11:30.181Z,-75
2018-08-10T12:12:30.159Z,-75
2018-08-10T12:13:30.218Z,-75
2018-08-10T12:14:30.065Z,-75
2018-08-10T12:15:30.205Z,-75
2018-08-10T12:16:30.066Z,-75
2018-08-10T12:17:30.209Z,-75
2018-08-10T12:18:30.067Z,-75
2018-08-10T12:19:30.191Z,-75
2018-08-10T12:20:30.080Z,-75
2018-08-10T12:21:30.189Z,-75
2018-08-10T12:22:30.097Z,-75
2018-08-10T12:23:30.200Z,-75
2018-08-10T12:24:30.073Z,-75
2018-08-10T12:25:30.193Z,-75
2018-08-10T12:26:30.075Z,-75
2018-08-10T12:27:30.240Z,-75
2018-08-10T12:28:30.078Z,-75
2018-08-10T12:29:30.199Z,-75
2018-08-10T12:30:30.488Z,-75
2018-08-10T12:31:30.204Z,-75
2018-08-10T12:32:30.106Z,-75
2018-08-10T12:33:30.216Z,-75
2018-08-10T12:34:30.084Z,-75
2018-08-10T12:35:30.224Z,-75
2018-08-10T12:36:30.154Z,-76
2018-08-10T12:37:30.231Z,-76
2018-08-10T12:38:30.086Z,-76
2018-08-10T12:39:30.221Z,-76
2018-08-10T12:40:30.089Z,-76
2018-08-10T12:41:30.242Z,-76
2018-08-10T12:42:30.127Z,-76
2018-08-10T12:43:30.217Z,-76
2018-08-10T12:44:30.096Z,-76
2018-08-10T12:45:30.222Z,-76
2018-08-10T12:46:30.145Z,-76
2018-08-10T12:47:30.302Z,-76
2018-08-10T12:48:30.100Z,-76
2018-08-10T12:49:30.215Z,-76
2018-08-10T12:50:30.164Z,-76
2018-08-10T12:51:30.223Z,-76
2018-08-10T12:52:30.108Z,-76
2018-08-10T12:53:30.276Z,-76
2018-08-10T12:54:30.106Z,-76
2018-08-10T12:55:30.227Z,-76
2018-08-10T12:56:30.105Z,-76
2018-08-10T12:57:30.237Z,-75
2018-08-10T12:58:30.133Z,-76
2018-08-10T12:59:30.230Z,-76
2018-08-10T13:00:30.108Z,-76
2018-08-10T13:01:30.236Z,-76
2018-08-10T13:02:30.151Z,-76
2018-08-10T13:03:30.263Z,-75
2018-08-10T13:04:30.113Z,-76
2018-08-10T13:05:30.241Z,-76
2018-08-10T13:06:30.119Z,-76
2018-08-10T13:07:30.238Z,-76
2018-08-10T13:08:30.141Z,-76
2018-08-10T13:09:30.235Z,-76
2018-08-10T13:10:30.151Z,-76
2018-08-10T13:11:30.255Z,-76
2018-08-10T13:12:30.142Z,-76
2018-08-10T13:13:30.264Z,-76
2018-08-10T13:14:30.129Z,-76
2018-08-10T13:15:30.240Z,-76
2018-08-10T13:16:30.130Z,-77
2018-08-10T13:17:30.254Z,-77
2018-08-10T13:18:30.256Z,-77
2018-08-10T13:19:30.245Z,-77
2018-08-10T13:20:30.130Z,-77
2018-08-10T13:21:30.247Z,-77
2018-08-10T13:22:30.138Z,-77
2018-08-10T13:23:30.272Z,-77
2018-08-10T13:24:30.142Z,-77
2018-08-10T13:25:30.253Z,-77
2018-08-10T13:26:30.138Z,-77
2018-08-10T13:27:30.251Z,-77
2018-08-10T13:28:30.160Z,-77
2018-08-10T13:29:30.253Z,-77
2018-08-10T13:30:30.147Z,-77
2018-08-10T13:31:30.278Z,-77
2018-08-10T13:32:30.158Z,-77
2018-08-10T13:33:30.315Z,-77
2018-08-10T13:34:30.152Z,-77
2018-08-10T13:35:30.441Z,-77
2018-08-10T13:36:30.147Z,-77
2018-08-10T13:37:30.262Z,-77
2018-08-10T13:38:30.178Z,-77
2018-08-10T13:39:30.262Z,-77
2018-08-10T13:40:30.147Z,-77
2018-08-10T13:41:30.270Z,-77
2018-08-10T13:42:30.239Z,-77
2018-08-10T13:43:30.783Z,-77
2018-08-10T13:44:30.179Z,-77
2018-08-10T13:45:30.271Z,-77
2018-08-10T13:46:30.158Z,-77